createdAt,value
2018-09-15T00:02:22.560Z,16.17
2018-09-15T00:04:51.706Z,12.77
2018-09-15T00:07:20.862Z,14.27
2018-09-15T00:09:50.066Z,11.13
2018-09-15T00:12:19.395Z,12.57
2018-09-15T00:14:48.535Z,12.37
2018-09-15T00:17:17.737Z,11.20
2018-09-15T00:19:47.266Z,11.10
2018-09-15T00:22:16.654Z,15.70
2018-09-15T00:24:45.939Z,31.17
2018-09-15T00:27:15.102Z,22.90
2018-09-15T00:29:44.274Z,24.20
2018-09-15T00:32:13.479Z,28.47
2018-09-15T00:34:42.630Z,28.80
2018-09-15T00:37:11.813Z,27.80
2018-09-15T00:39:41.158Z,23.03
2018-09-15T00:42:10.333Z,32.70
2018-09-15T00:44:39.505Z,41.17
2018-09-15T00:47:08.725Z,15.37
2018-09-15T00:49:37.890Z,34.07
2018-09-15T00:52:07.113Z,16.90
2018-09-15T00:54:36.290Z,24.63
2018-09-15T00:57:05.493Z,40.40
2018-09-15T00:59:34.651Z,38.43
2018-09-15T01:02:07.051Z,19.47
2018-09-15T01:04:36.242Z,32.50
2018-09-15T01:07:05.414Z,37.03
2018-09-15T01:09:34.643Z,11.37
2018-09-15T01:12:03.781Z,14.07
2018-09-15T01:14:33.057Z,13.63
2018-09-15T01:17:02.241Z,15.47
2018-09-15T01:21:00.851Z,18.07
2018-09-15T01:23:30.226Z,16.17
2018-09-15T01:25:59.384Z,29.30
2018-09-15T01:28:28.564Z,31.13
2018-09-15T01:30:57.742Z,24.23
2018-09-15T01:33:26.991Z,23.50
2018-09-15T01:35:56.145Z,12.77
2018-09-15T01:38:25.411Z,16.20
2018-09-15T01:40:54.573Z,16.30
2018-09-15T01:43:23.801Z,12.40
2018-09-15T01:45:52.978Z,13.43
2018-09-15T01:48:22.141Z,14.33
2018-09-15T01:50:51.292Z,29.20
2018-09-15T01:53:20.474Z,25.20
2018-09-15T01:55:49.638Z,11.97
2018-09-15T01:58:18.770Z,31.50
2018-09-15T02:00:47.981Z,35.07
2018-09-15T02:03:17.132Z,31.03
2018-09-15T02:05:46.282Z,27.27
2018-09-15T02:08:15.457Z,20.67
2018-09-15T02:11:06.746Z,34.63
2018-09-15T02:13:35.933Z,33.83
2018-09-15T02:16:05.085Z,35.37
2018-09-15T02:18:34.258Z,37.10
2018-09-15T02:21:03.433Z,19.60
2018-09-15T02:23:32.643Z,32.33
2018-09-15T02:26:01.805Z,24.73
2018-09-15T02:28:30.987Z,27.03
2018-09-15T02:31:00.140Z,17.70
2018-09-15T02:33:29.293Z,24.07
2018-09-15T02:35:58.483Z,22.90
2018-09-15T02:38:27.699Z,25.20
2018-09-15T02:40:56.845Z,22.60
2018-09-15T02:43:26.039Z,20.80
2018-09-15T02:45:55.200Z,21.63
2018-09-15T02:48:24.364Z,13.87
2018-09-15T02:50:53.557Z,11.30
2018-09-15T02:53:22.708Z,15.70
2018-09-15T02:55:51.891Z,22.97
2018-09-15T02:58:21.100Z,26.10
2018-09-15T03:00:50.318Z,11.63
2018-09-15T03:03:19.493Z,19.23
2018-09-15T03:05:48.745Z,22.53
2018-09-15T03:08:17.897Z,22.10
2018-09-15T03:10:47.113Z,20.30
2018-09-15T03:13:16.309Z,22.97
2018-09-15T03:15:45.479Z,22.70
2018-09-15T03:18:14.669Z,25.07
2018-09-15T03:20:43.880Z,22.50
2018-09-15T03:23:13.081Z,22.90
2018-09-15T03:25:42.289Z,25.60
2018-09-15T03:28:11.485Z,27.03
2018-09-15T03:30:40.655Z,23.83
2018-09-15T03:33:09.873Z,10.87
2018-09-15T03:36:04.338Z,19.63
2018-09-15T03:38:33.538Z,16.20
2018-09-15T03:41:02.714Z,25.70
2018-09-15T03:43:31.997Z,12.90
2018-09-15T03:46:01.154Z,15.93
2018-09-15T03:48:30.305Z,13.47
2018-09-15T03:50:59.489Z,13.47
2018-09-15T03:53:28.630Z,23.17
2018-09-15T03:55:57.813Z,18.10
2018-09-15T03:58:27.004Z,24.13
2018-09-15T04:00:56.194Z,21.97
2018-09-15T04:03:25.346Z,27.47
2018-09-15T04:05:54.549Z,23.10
2018-09-15T04:08:23.705Z,24.53
2018-09-15T04:10:52.869Z,22.93
2018-09-15T04:13:22.158Z,10.20
2018-09-15T04:15:51.325Z,9.93
2018-09-15T04:18:20.482Z,12.83
2018-09-15T04:20:49.686Z,22.47
2018-09-15T04:23:18.841Z,23.57
2018-09-15T04:25:48.593Z,18.33
2018-09-15T04:28:17.803Z,21.67
2018-09-15T04:30:46.987Z,22.10
2018-09-15T04:33:16.153Z,17.80
2018-09-15T04:35:45.391Z,14.07
2018-09-15T04:38:14.535Z,9.83
2018-09-15T04:40:43.685Z,15.53
2018-09-15T04:43:12.870Z,21.17
2018-09-15T04:45:42.039Z,22.53
2018-09-15T04:48:11.207Z,25.87
2018-09-15T04:50:40.439Z,28.33
2018-09-15T04:53:09.631Z,32.43
2018-09-15T04:55:38.872Z,27.93
2018-09-15T04:58:08.073Z,30.60
2018-09-15T05:00:37.247Z,69.27
2018-09-15T05:03:06.594Z,24.00
2018-09-15T05:05:35.863Z,46.77
2018-09-15T05:08:05.429Z,38.77
2018-09-15T05:10:34.594Z,33.37
2018-09-15T05:13:07.453Z,33.20
2018-09-15T05:15:36.822Z,35.27
2018-09-15T05:19:35.234Z,43.20
2018-09-15T05:22:04.384Z,28.37
2018-09-15T05:24:33.550Z,41.70
2018-09-15T05:27:06.630Z,55.77
2018-09-15T05:29:35.782Z,47.80
2018-09-15T05:32:06.595Z,39.70
2018-09-15T05:34:36.152Z,49.47
2018-09-15T05:37:05.332Z,49.90
2018-09-15T05:39:34.510Z,26.20
2018-09-15T05:42:03.818Z,21.77
2018-09-15T05:44:33.044Z,73.13
2018-09-15T05:47:02.209Z,26.57
2018-09-15T05:49:31.388Z,33.77
2018-09-15T05:52:00.657Z,31.43
2018-09-15T05:54:29.817Z,41.23
2018-09-15T05:56:59.040Z,31.47
2018-09-15T05:59:28.210Z,32.07
2018-09-15T06:02:08.661Z,46.80
2018-09-15T06:04:37.885Z,48.67
2018-09-15T06:07:07.097Z,25.80
2018-09-15T06:09:36.286Z,36.40
2018-09-15T06:12:05.501Z,36.33
2018-09-15T06:14:34.694Z,36.83
2018-09-15T06:17:03.913Z,36.17
2018-09-15T06:19:33.073Z,36.97
2018-09-15T06:22:02.302Z,34.80
2018-09-15T06:24:32.379Z,43.13
2018-09-15T06:27:01.571Z,32.13
2018-09-15T06:29:30.800Z,16.93
2018-09-15T06:32:06.337Z,35.03
2018-09-15T06:34:35.551Z,33.50
2018-09-15T06:37:06.608Z,27.27
2018-09-15T06:39:35.777Z,36.60
2018-09-15T06:42:04.951Z,25.77
2018-09-15T06:44:34.127Z,28.27
2018-09-15T06:47:03.289Z,25.67
2018-09-15T06:49:32.504Z,32.23
2018-09-15T06:52:01.697Z,32.47
2018-09-15T06:54:30.938Z,33.50
2018-09-15T06:57:00.152Z,23.10
2018-09-15T06:59:29.337Z,26.90
2018-09-15T07:02:06.319Z,22.30
2018-09-15T07:05:04.460Z,31.03
2018-09-15T07:07:33.617Z,35.57
2018-09-15T07:10:08.514Z,28.77
2018-09-15T07:13:03.549Z,39.00
2018-09-15T07:22:03.678Z,25.13
2018-09-15T07:37:03.961Z,18.90
2018-09-15T07:49:03.547Z,17.40
2018-09-15T07:57:34.975Z,23.13
2018-09-15T08:00:07.475Z,21.37
2018-09-15T08:03:04.137Z,19.97
2018-09-15T08:15:03.822Z,23.17
2018-09-15T08:17:33.005Z,18.50
2018-09-15T08:20:02.251Z,19.97
2018-09-15T08:22:31.493Z,19.80
2018-09-15T08:25:00.655Z,22.67
2018-09-15T08:27:29.837Z,19.33
2018-09-15T08:29:59.161Z,21.20
2018-09-15T08:32:28.325Z,26.80
2018-09-15T08:34:57.513Z,26.80
2018-09-15T08:37:26.703Z,21.67
2018-09-15T08:39:56.017Z,20.30
2018-09-15T08:45:25.627Z,21.10
2018-09-15T08:49:24.263Z,24.27
2018-09-15T08:51:53.466Z,24.43
2018-09-15T08:54:23.228Z,17.83
2018-09-15T08:56:52.414Z,22.77
2018-09-15T08:59:21.617Z,18.40
2018-09-15T09:01:50.786Z,18.30
2018-09-15T09:04:20.090Z,20.63
2018-09-15T09:06:49.245Z,19.70
2018-09-15T09:09:18.405Z,19.90
2018-09-15T09:11:47.621Z,18.50
2018-09-15T09:14:16.792Z,21.83
2018-09-15T09:16:45.960Z,19.07
2018-09-15T09:19:15.165Z,19.83
2018-09-15T09:21:44.305Z,20.10
2018-09-15T09:24:13.490Z,19.40
2018-09-15T09:26:42.757Z,18.30
2018-09-15T09:29:11.905Z,20.27
2018-09-15T09:31:41.125Z,18.57
2018-09-15T09:34:10.312Z,20.30
2018-09-15T09:36:39.490Z,20.00
2018-09-15T09:39:11.597Z,13.57
2018-09-15T09:41:40.929Z,19.13
2018-09-15T09:44:10.084Z,23.03
2018-09-15T09:46:39.316Z,18.20
2018-09-15T09:49:08.479Z,17.27
2018-09-15T09:51:37.662Z,18.97
2018-09-15T09:54:06.862Z,19.37
2018-09-15T09:56:36.021Z,15.63
2018-09-15T09:59:05.402Z,31.77
2018-09-15T10:01:40.122Z,16.17
2018-09-15T10:04:09.265Z,13.80
2018-09-15T10:06:38.445Z,17.83
2018-09-15T10:09:10.228Z,26.83
2018-09-15T10:11:40.432Z,12.33
2018-09-15T10:14:09.661Z,14.60
2018-09-15T10:16:39.045Z,14.70
2018-09-15T10:19:08.933Z,16.17
2018-09-15T10:21:38.565Z,13.53
2018-09-15T10:24:07.793Z,13.10
2018-09-15T10:26:36.954Z,14.90
2018-09-15T10:29:06.690Z,13.83
2018-09-15T10:31:35.909Z,13.10
2018-09-15T10:34:08.227Z,12.97
2018-09-15T10:36:37.381Z,13.83
2018-09-15T10:39:08.980Z,14.27
2018-09-15T10:41:38.200Z,13.83
2018-09-15T10:44:07.653Z,17.20
2018-09-15T10:46:36.840Z,15.27
2018-09-15T10:49:06.037Z,16.60
2018-09-15T10:51:35.213Z,14.00
2018-09-15T10:54:04.417Z,14.00
2018-09-15T10:56:33.576Z,15.23
2018-09-15T10:59:02.726Z,16.40
2018-09-15T11:04:32.624Z,21.63
2018-09-15T11:07:01.779Z,15.97
2018-09-15T11:09:31.000Z,13.83
2018-09-15T11:12:00.213Z,16.00
2018-09-15T11:14:29.393Z,12.67
2018-09-15T11:16:58.548Z,17.10
2018-09-15T11:19:27.741Z,14.33
2018-09-15T11:21:56.899Z,13.80
2018-09-15T11:24:26.080Z,13.70
2018-09-15T11:26:55.585Z,13.33
2018-09-15T11:30:12.146Z,18.30
2018-09-15T11:32:41.332Z,16.30
2018-09-15T11:35:10.488Z,15.70
2018-09-15T11:37:39.650Z,16.37
2018-09-15T11:40:08.846Z,15.70
2018-09-15T11:42:38.002Z,14.93
2018-09-15T11:45:07.203Z,11.60
2018-09-15T11:47:36.427Z,16.03
2018-09-15T11:50:05.635Z,16.30
2018-09-15T11:52:34.927Z,16.47
2018-09-15T11:55:04.188Z,13.90
2018-09-15T12:00:36.253Z,17.03
2018-09-15T12:03:05.417Z,14.00
2018-09-15T12:05:34.775Z,13.83
2018-09-15T12:08:04.017Z,13.20
2018-09-15T12:10:33.184Z,13.77
2018-09-15T12:13:02.344Z,13.60
2018-09-15T12:15:31.536Z,14.57
2018-09-15T12:18:00.694Z,13.43
2018-09-15T12:20:29.865Z,15.43
2018-09-15T12:22:59.068Z,17.63
2018-09-15T12:25:28.360Z,18.00
2018-09-15T12:27:57.563Z,11.87
2018-09-15T12:30:26.771Z,16.00
2018-09-15T12:32:55.953Z,11.57
2018-09-15T12:35:25.139Z,11.63
2018-09-15T12:37:54.396Z,13.80
2018-09-15T12:43:23.719Z,12.93
2018-09-15T12:45:52.890Z,16.00
2018-09-15T12:48:22.205Z,13.90
2018-09-15T12:50:51.413Z,13.10
2018-09-15T12:53:20.594Z,15.63
2018-09-15T12:55:49.845Z,15.60
2018-09-15T12:58:19.034Z,14.60
2018-09-15T13:00:48.198Z,13.77
2018-09-15T13:03:17.373Z,14.37
2018-09-15T13:05:46.572Z,13.53
2018-09-15T13:08:15.753Z,14.33
2018-09-15T13:10:44.917Z,17.33
2018-09-15T13:13:14.129Z,18.73
2018-09-15T13:15:43.281Z,17.40
2018-09-15T13:21:13.205Z,11.47
2018-09-15T13:24:05.559Z,12.87
2018-09-15T13:36:04.211Z,12.27
2018-09-15T13:38:33.394Z,17.93
2018-09-15T13:44:06.208Z,12.27
2018-09-15T13:47:04.621Z,12.33
2018-09-15T13:49:33.822Z,12.77
2018-09-15T13:52:03.011Z,11.10
2018-09-15T13:57:32.645Z,14.90
2018-09-15T14:00:01.820Z,9.60
2018-09-15T14:02:30.952Z,11.37
2018-09-15T14:05:00.269Z,7.73
2018-09-15T14:07:29.374Z,10.27
2018-09-15T14:09:58.612Z,11.20
2018-09-15T14:12:28.364Z,8.17
2018-09-15T14:14:57.562Z,11.37
2018-09-15T14:17:26.758Z,10.60
2018-09-15T14:19:56.006Z,8.77
2018-09-15T14:22:25.364Z,7.70
2018-09-15T14:24:54.491Z,8.87
2018-09-15T14:27:23.681Z,8.50
2018-09-15T14:29:52.849Z,10.60
2018-09-15T14:32:22.009Z,8.77
2018-09-15T14:34:51.215Z,7.17
2018-09-15T14:37:20.405Z,10.63
2018-09-15T14:39:49.695Z,7.70
2018-09-15T14:42:18.941Z,8.97
2018-09-15T14:44:48.157Z,10.83
2018-09-15T14:47:17.674Z,9.40
2018-09-15T14:49:46.873Z,7.53
2018-09-15T14:52:16.042Z,9.23
2018-09-15T14:54:45.209Z,8.97
2018-09-15T14:57:14.410Z,7.70
2018-09-15T14:59:43.597Z,7.40
2018-09-15T15:02:12.775Z,9.53
2018-09-15T15:04:41.975Z,8.73
2018-09-15T15:07:11.132Z,10.40
2018-09-15T15:09:40.474Z,6.90
2018-09-15T15:12:09.645Z,7.40
2018-09-15T15:15:04.429Z,9.40
2018-09-15T15:17:33.637Z,9.60
2018-09-15T15:20:02.864Z,8.40
2018-09-15T15:22:32.022Z,8.43
2018-09-15T15:25:02.453Z,8.20
2018-09-15T15:27:31.633Z,8.27
2018-09-15T15:30:06.808Z,7.70
2018-09-15T15:32:36.230Z,8.00
2018-09-15T15:35:05.421Z,6.37
2018-09-15T15:37:34.591Z,10.30
2018-09-15T15:40:03.765Z,8.53
2018-09-15T15:42:32.991Z,9.70
2018-09-15T15:45:07.691Z,7.17
2018-09-15T15:48:04.177Z,7.60
2018-09-15T15:50:33.352Z,8.40
2018-09-15T15:53:08.529Z,8.30
2018-09-15T15:59:04.652Z,8.30
2018-09-15T16:07:34.172Z,7.57
2018-09-15T16:12:37.581Z,6.97
2018-09-15T16:15:06.777Z,7.57
2018-09-15T16:17:35.928Z,8.23
2018-09-15T16:20:05.150Z,8.03
2018-09-15T16:22:34.297Z,7.00
2018-09-15T16:25:06.649Z,8.30
2018-09-15T16:28:05.023Z,6.80
2018-09-15T16:30:34.252Z,7.80
2018-09-15T16:33:07.125Z,9.33
2018-09-15T16:36:03.990Z,7.83
2018-09-15T16:41:34.169Z,7.07
2018-09-15T16:44:03.457Z,9.03
2018-09-15T16:46:32.726Z,7.27
2018-09-15T16:49:01.961Z,7.10
2018-09-15T16:51:31.134Z,8.80
2018-09-15T16:54:00.313Z,6.83
2018-09-15T16:56:29.501Z,7.70
2018-09-15T16:58:59.281Z,8.77
2018-09-15T17:07:19.904Z,7.93
2018-09-15T17:10:05.653Z,7.03
2018-09-15T17:13:04.110Z,8.23
2018-09-15T17:25:04.753Z,7.27
2018-09-15T17:31:04.038Z,8.47
2018-09-15T17:43:04.201Z,6.70
2018-09-15T17:51:34.144Z,9.33
2018-09-15T17:54:07.206Z,7.33
2018-09-15T17:57:05.624Z,7.97
2018-09-15T18:00:04.478Z,8.80
2018-09-15T18:06:04.148Z,7.90
2018-09-15T18:14:33.745Z,7.70
2018-09-15T18:17:08.462Z,8.17
2018-09-15T18:19:37.742Z,8.30
2018-09-15T18:22:07.010Z,7.80
2018-09-15T18:24:36.666Z,7.73
2018-09-15T18:27:05.914Z,6.50
2018-09-15T18:29:35.182Z,8.60
2018-09-15T18:32:07.643Z,6.70
2018-09-15T18:34:36.793Z,9.47
2018-09-15T18:37:06.051Z,8.33
2018-09-15T18:39:35.229Z,9.30
2018-09-15T18:42:04.378Z,7.50
2018-09-15T18:44:33.599Z,7.87
2018-09-15T18:47:02.801Z,8.43
2018-09-15T18:49:31.970Z,8.47
2018-09-15T18:52:01.177Z,9.30
2018-09-15T18:54:30.957Z,8.43
2018-09-15T18:57:00.186Z,8.17
2018-09-15T18:59:29.415Z,7.40
2018-09-15T19:02:06.377Z,9.80
2018-09-15T19:04:35.570Z,8.33
2018-09-15T19:10:05.612Z,9.50
2018-09-15T19:12:34.836Z,9.40
2018-09-15T19:15:04.358Z,9.63
2018-09-15T19:17:33.518Z,11.10
2018-09-15T19:20:02.698Z,8.80
2018-09-15T19:22:32.091Z,10.50
2018-09-15T19:25:01.297Z,10.03
2018-09-15T19:27:30.469Z,11.30
2018-09-15T19:29:59.925Z,10.93
2018-09-15T19:32:29.112Z,10.27
2018-09-15T19:34:58.702Z,8.87
2018-09-15T19:37:27.928Z,10.83
2018-09-15T19:40:07.111Z,15.03
2018-09-15T19:42:36.313Z,9.90
2018-09-15T19:45:06.058Z,11.33
2018-09-15T19:48:04.481Z,11.30
2018-09-15T19:56:34.985Z,12.37
2018-09-15T19:59:07.599Z,11.20
2018-09-15T20:02:04.124Z,11.53
2018-09-15T20:04:33.866Z,10.03
2018-09-15T20:07:08.609Z,11.20
2018-09-15T20:10:04.429Z,13.73
2018-09-15T20:12:33.659Z,11.27
2018-09-15T20:15:19.336Z,10.23
2018-09-15T20:17:47.050Z,13.43
2018-09-15T20:20:14.718Z,12.17
2018-09-15T20:22:43.950Z,11.80
2018-09-15T20:25:13.226Z,12.63
2018-09-15T20:27:42.369Z,11.07
2018-09-15T20:30:11.579Z,12.80
2018-09-15T20:32:41.445Z,12.80
2018-09-15T20:35:10.765Z,13.40
2018-09-15T20:38:05.067Z,11.80
2018-09-15T20:43:34.581Z,10.57
2018-09-15T20:46:06.784Z,11.67
2018-09-15T20:48:35.977Z,12.90
2018-09-15T20:51:08.547Z,12.33
2018-09-15T20:54:04.157Z,13.67
2018-09-15T20:56:33.322Z,11.60
2018-09-15T20:59:02.494Z,10.30
2018-09-15T21:01:32.637Z,11.53
2018-09-15T21:04:07.438Z,12.43
2018-09-15T21:06:36.717Z,10.60
2018-09-15T21:09:09.780Z,10.53
2018-09-15T21:11:39.301Z,11.87
2018-09-15T21:14:08.461Z,12.33
2018-09-15T21:16:37.896Z,11.40
2018-09-15T21:19:07.251Z,10.83
2018-09-15T21:21:36.506Z,10.47
2018-09-15T21:24:05.740Z,11.40
2018-09-15T21:29:35.044Z,13.37
2018-09-15T21:32:07.878Z,12.00
2018-09-15T21:34:37.095Z,10.60
2018-09-15T21:37:06.813Z,10.57
2018-09-15T21:39:35.992Z,10.73
2018-09-15T21:42:05.238Z,11.30
2018-09-15T21:44:34.407Z,10.13
2018-09-15T21:47:03.604Z,11.63
2018-09-15T21:49:32.825Z,10.50
2018-09-15T21:52:01.995Z,10.80
2018-09-15T21:54:31.165Z,9.97
2018-09-15T21:57:00.366Z,11.20
2018-09-15T22:05:29.503Z,12.30
2018-09-15T22:07:58.662Z,16.30
2018-09-15T22:13:27.985Z,14.27
2018-09-15T22:15:57.189Z,17.07
2018-09-15T22:18:28.186Z,21.53
2018-09-15T22:20:57.385Z,19.63
2018-09-15T22:23:26.612Z,22.10
2018-09-15T22:26:08.389Z,19.93
2018-09-15T22:28:37.550Z,21.27
2018-09-15T22:31:07.033Z,19.70
2018-09-15T22:33:36.225Z,22.00
2018-09-15T22:36:05.416Z,21.27
2018-09-15T22:41:34.652Z,21.40
2018-09-15T22:44:03.812Z,23.40
2018-09-15T22:46:32.978Z,22.90
2018-09-15T22:49:02.225Z,22.87
2018-09-15T22:51:31.377Z,24.43
2018-09-15T22:54:00.611Z,23.00
2018-09-15T22:56:29.969Z,24.67
2018-09-15T22:58:59.127Z,22.77
2018-09-15T23:01:28.343Z,23.40
2018-09-15T23:04:03.556Z,23.03
2018-09-15T23:06:33.153Z,21.33
2018-09-15T23:09:02.364Z,21.80
2018-09-15T23:11:31.633Z,23.70
2018-09-15T23:14:00.784Z,21.90
2018-09-15T23:16:29.958Z,22.97
2018-09-15T23:18:59.868Z,21.17
2018-09-15T23:21:28.984Z,21.70
2018-09-15T23:23:58.341Z,22.07
2018-09-15T23:26:27.629Z,24.17
2018-09-15T23:28:56.892Z,20.90
2018-09-15T23:31:26.088Z,20.67
2018-09-15T23:33:55.258Z,24.17
2018-09-15T23:36:24.537Z,22.93
2018-09-15T23:38:53.733Z,20.67
2018-09-15T23:41:22.952Z,19.87
2018-09-15T23:43:52.129Z,19.17
2018-09-15T23:46:21.311Z,18.97
2018-09-15T23:48:50.477Z,19.73
2018-09-15T23:51:19.673Z,19.93
2018-09-15T23:53:48.912Z,17.90
2018-09-15T23:56:18.170Z,18.13
2018-09-15T23:58:47.339Z,22.90
